sensor_id;sensor_type;location;lat;lon;timestamp;temperature;humidity
37782;DHT22;23621;50.878;4.584;2022-09-28T00:02:23;17.40;73.40
37782;DHT22;23621;50.878;4.584;2022-09-28T00:04:51;17.40;73.50
37782;DHT22;23621;50.878;4.584;2022-09-28T00:07:17;17.40;73.50
37782;DHT22;23621;50.878;4.584;2022-09-28T00:09:44;17.40;73.60
37782;DHT22;23621;50.878;4.584;2022-09-28T00:12:11;17.40;73.60
37782;DHT22;23621;50.878;4.584;2022-09-28T00:14:38;17.40;73.50
37782;DHT22;23621;50.878;4.584;2022-09-28T00:17:06;17.50;73.60
37782;DHT22;23621;50.878;4.584;2022-09-28T00:19:33;17.50;73.50
37782;DHT22;23621;50.878;4.584;2022-09-28T00:22:00;17.50;73.40
37782;DHT22;23621;50.878;4.584;2022-09-28T00:24:27;17.50;73.40
37782;DHT22;23621;50.878;4.584;2022-09-28T00:26:56;17.50;73.40
37782;DHT22;23621;50.878;4.584;2022-09-28T00:31:57;17.60;73.50
37782;DHT22;23621;50.878;4.584;2022-09-28T00:34:26;17.60;73.40
37782;DHT22;23621;50.878;4.584;2022-09-28T00:36:53;17.60;73.60
37782;DHT22;23621;50.878;4.584;2022-09-28T00:39:20;17.60;73.60
37782;DHT22;23621;50.878;4.584;2022-09-28T00:41:47;17.50;73.60
37782;DHT22;23621;50.878;4.584;2022-09-28T00:46:53;17.60;73.90
37782;DHT22;23621;50.878;4.584;2022-09-28T00:49:31;17.60;73.90
37782;DHT22;23621;50.878;4.584;2022-09-28T00:51:59;17.60;74.00
37782;DHT22;23621;50.878;4.584;2022-09-28T00:54:27;17.60;74.00
37782;DHT22;23621;50.878;4.584;2022-09-28T00:56:54;17.60;74.00
37782;DHT22;23621;50.878;4.584;2022-09-28T00:59:21;17.60;74.00
37782;DHT22;23621;50.878;4.584;2022-09-28T01:01:50;17.60;74.00
37782;DHT22;23621;50.878;4.584;2022-09-28T01:04:17;17.60;74.10
37782;DHT22;23621;50.878;4.584;2022-09-28T01:06:44;17.60;74.10
37782;DHT22;23621;50.878;4.584;2022-09-28T01:09:13;17.60;74.10
37782;DHT22;23621;50.878;4.584;2022-09-28T01:11:41;17.50;74.00
37782;DHT22;23621;50.878;4.584;2022-09-28T01:14:10;17.50;74.10
37782;DHT22;23621;50.878;4.584;2022-09-28T01:27:31;17.00;74.20
37782;DHT22;23621;50.878;4.584;2022-09-28T01:30:06;17.00;74.30
37782;DHT22;23621;50.878;4.584;2022-09-28T01:35:17;17.00;74.30
37782;DHT22;23621;50.878;4.584;2022-09-28T01:37:51;17.10;75.00
37782;DHT22;23621;50.878;4.584;2022-09-28T01:40:20;17.10;74.30
37782;DHT22;23621;50.878;4.584;2022-09-28T01:42:53;17.10;74.20
37782;DHT22;23621;50.878;4.584;2022-09-28T01:45:27;17.20;74.30
37782;DHT22;23621;50.878;4.584;2022-09-28T01:48:00;17.20;74.30
37782;DHT22;23621;50.878;4.584;2022-09-28T01:50:29;17.10;75.00
37782;DHT22;23621;50.878;4.584;2022-09-28T01:55:46;17.10;74.20
37782;DHT22;23621;50.878;4.584;2022-09-28T01:58:36;17.00;74.00
37782;DHT22;23621;50.878;4.584;2022-09-28T02:01:21;16.90;74.20
37782;DHT22;23621;50.878;4.584;2022-09-28T02:04:02;16.80;74.30
37782;DHT22;23621;50.878;4.584;2022-09-28T02:06:38;16.80;74.30
37782;DHT22;23621;50.878;4.584;2022-09-28T02:09:11;16.80;74.30
37782;DHT22;23621;50.878;4.584;2022-09-28T02:11:44;16.80;74.00
37782;DHT22;23621;50.878;4.584;2022-09-28T02:14:12;16.80;74.00
37782;DHT22;23621;50.878;4.584;2022-09-28T02:16:47;16.80;74.10
37782;DHT22;23621;50.878;4.584;2022-09-28T02:19:18;16.70;73.90
37782;DHT22;23621;50.878;4.584;2022-09-28T02:22:08;16.80;74.00
37782;DHT22;23621;50.878;4.584;2022-09-28T02:24:54;16.90;74.10
37782;DHT22;23621;50.878;4.584;2022-09-28T02:29:55;16.90;73.70
37782;DHT22;23621;50.878;4.584;2022-09-28T02:32:23;16.90;73.50
37782;DHT22;23621;50.878;4.584;2022-09-28T02:34:51;17.00;73.50
37782;DHT22;23621;50.878;4.584;2022-09-28T02:37:18;17.00;73.40
37782;DHT22;23621;50.878;4.584;2022-09-28T02:39:45;16.90;73.30
37782;DHT22;23621;50.878;4.584;2022-09-28T02:42:20;16.90;73.20
37782;DHT22;23621;50.878;4.584;2022-09-28T02:56:20;16.70;73.40
37782;DHT22;23621;50.878;4.584;2022-09-28T02:59:16;16.60;73.60
37782;DHT22;23621;50.878;4.584;2022-09-28T03:04:33;16.60;73.90
37782;DHT22;23621;50.878;4.584;2022-09-28T03:09:44;16.70;73.80
37782;DHT22;23621;50.878;4.584;2022-09-28T03:12:17;16.70;73.70
37782;DHT22;23621;50.878;4.584;2022-09-28T03:14:45;16.70;73.60
37782;DHT22;23621;50.878;4.584;2022-09-28T03:17:12;16.80;73.60
37782;DHT22;23621;50.878;4.584;2022-09-28T03:19:39;16.70;73.60
37782;DHT22;23621;50.878;4.584;2022-09-28T03:22:05;16.70;73.60
37782;DHT22;23621;50.878;4.584;2022-09-28T03:24:33;16.80;73.80
37782;DHT22;23621;50.878;4.584;2022-09-28T03:27:00;16.80;73.70
37782;DHT22;23621;50.878;4.584;2022-09-28T03:29:27;16.80;73.70
37782;DHT22;23621;50.878;4.584;2022-09-28T03:31:56;16.90;73.70
37782;DHT22;23621;50.878;4.584;2022-09-28T03:34:23;16.90;73.60
37782;DHT22;23621;50.878;4.584;2022-09-28T03:36:50;16.90;73.60
37782;DHT22;23621;50.878;4.584;2022-09-28T03:39:17;16.90;73.50
37782;DHT22;23621;50.878;4.584;2022-09-28T03:41:44;16.90;73.40
37782;DHT22;23621;50.878;4.584;2022-09-28T03:44:10;16.90;73.40
37782;DHT22;23621;50.878;4.584;2022-09-28T03:46:37;16.80;74.20
37782;DHT22;23621;50.878;4.584;2022-09-28T03:49:04;16.80;73.30
37782;DHT22;23621;50.878;4.584;2022-09-28T03:51:31;16.80;73.40
37782;DHT22;23621;50.878;4.584;2022-09-28T03:53:58;16.70;73.20
37782;DHT22;23621;50.878;4.584;2022-09-28T03:56:25;16.70;73.20
37782;DHT22;23621;50.878;4.584;2022-09-28T03:58:51;16.70;73.20
37782;DHT22;23621;50.878;4.584;2022-09-28T04:01:18;16.70;73.00
37782;DHT22;23621;50.878;4.584;2022-09-28T04:03:46;16.70;72.90
37782;DHT22;23621;50.878;4.584;2022-09-28T04:06:13;16.60;72.80
37782;DHT22;23621;50.878;4.584;2022-09-28T04:08:41;16.60;72.70
37782;DHT22;23621;50.878;4.584;2022-09-28T04:11:09;16.60;72.60
37782;DHT22;23621;50.878;4.584;2022-09-28T04:13:35;16.60;72.50
37782;DHT22;23621;50.878;4.584;2022-09-28T04:16:02;16.50;72.40
37782;DHT22;23621;50.878;4.584;2022-09-28T04:18:31;16.50;72.40
37782;DHT22;23621;50.878;4.584;2022-09-28T04:21:07;16.50;72.50
37782;DHT22;23621;50.878;4.584;2022-09-28T04:23:35;16.50;72.40
37782;DHT22;23621;50.878;4.584;2022-09-28T04:26:04;16.40;72.30
37782;DHT22;23621;50.878;4.584;2022-09-28T04:28:31;16.40;72.30
37782;DHT22;23621;50.878;4.584;2022-09-28T04:31:21;16.40;72.30
37782;DHT22;23621;50.878;4.584;2022-09-28T04:33:50;16.40;72.30
37782;DHT22;23621;50.878;4.584;2022-09-28T04:36:17;16.30;72.20
37782;DHT22;23621;50.878;4.584;2022-09-28T04:38:45;16.30;72.30
37782;DHT22;23621;50.878;4.584;2022-09-28T04:41:19;16.30;72.30
37782;DHT22;23621;50.878;4.584;2022-09-28T04:43:48;16.30;72.20
37782;DHT22;23621;50.878;4.584;2022-09-28T04:46:16;16.30;72.30
37782;DHT22;23621;50.878;4.584;2022-09-28T04:48:43;16.30;72.20
37782;DHT22;23621;50.878;4.584;2022-09-28T04:51:10;16.30;72.20
37782;DHT22;23621;50.878;4.584;2022-09-28T04:53:37;16.30;72.20
37782;DHT22;23621;50.878;4.584;2022-09-28T04:56:10;16.30;72.10
37782;DHT22;23621;50.878;4.584;2022-09-28T04:58:37;16.30;72.90
37782;DHT22;23621;50.878;4.584;2022-09-28T05:01:06;16.30;72.90
37782;DHT22;23621;50.878;4.584;2022-09-28T05:03:34;16.30;72.00
37782;DHT22;23621;50.878;4.584;2022-09-28T05:06:01;16.30;72.00
37782;DHT22;23621;50.878;4.584;2022-09-28T05:08:28;16.20;71.80
37782;DHT22;23621;50.878;4.584;2022-09-28T05:11:01;16.20;71.70
37782;DHT22;23621;50.878;4.584;2022-09-28T05:13:29;16.20;71.60
37782;DHT22;23621;50.878;4.584;2022-09-28T05:15:57;16.10;71.70
37782;DHT22;23621;50.878;4.584;2022-09-28T05:18:30;16.00;71.70
37782;DHT22;23621;50.878;4.584;2022-09-28T05:20:57;16.00;71.70
37782;DHT22;23621;50.878;4.584;2022-09-28T05:23:24;16.00;71.70
37782;DHT22;23621;50.878;4.584;2022-09-28T05:25:51;16.00;71.70
37782;DHT22;23621;50.878;4.584;2022-09-28T05:28:26;15.90;71.70
37782;DHT22;23621;50.878;4.584;2022-09-28T05:31:01;15.90;71.90
37782;DHT22;23621;50.878;4.584;2022-09-28T05:33:29;15.90;72.60
37782;DHT22;23621;50.878;4.584;2022-09-28T05:35:57;15.90;71.90
37782;DHT22;23621;50.878;4.584;2022-09-28T05:38:28;15.90;71.90
37782;DHT22;23621;50.878;4.584;2022-09-28T05:40:55;15.90;71.90
37782;DHT22;23621;50.878;4.584;2022-09-28T05:43:22;15.90;71.80
37782;DHT22;23621;50.878;4.584;2022-09-28T05:45:49;15.80;71.80
37782;DHT22;23621;50.878;4.584;2022-09-28T05:48:21;15.80;71.80
37782;DHT22;23621;50.878;4.584;2022-09-28T05:50:52;15.70;71.90
37782;DHT22;23621;50.878;4.584;2022-09-28T05:53:19;15.70;72.00
37782;DHT22;23621;50.878;4.584;2022-09-28T05:55:46;15.70;72.00
37782;DHT22;23621;50.878;4.584;2022-09-28T05:58:13;15.70;72.10
37782;DHT22;23621;50.878;4.584;2022-09-28T06:00:40;15.70;72.70
37782;DHT22;23621;50.878;4.584;2022-09-28T06:03:10;15.70;72.00
37782;DHT22;23621;50.878;4.584;2022-09-28T06:05:37;15.70;72.10
37782;DHT22;23621;50.878;4.584;2022-09-28T06:08:06;15.70;72.10
37782;DHT22;23621;50.878;4.584;2022-09-28T06:10:34;15.70;72.10
37782;DHT22;23621;50.878;4.584;2022-09-28T06:13:01;15.70;72.10
37782;DHT22;23621;50.878;4.584;2022-09-28T06:15:29;15.70;72.00
37782;DHT22;23621;50.878;4.584;2022-09-28T06:18:01;15.70;72.20
37782;DHT22;23621;50.878;4.584;2022-09-28T06:20:33;15.70;72.30
37782;DHT22;23621;50.878;4.584;2022-09-28T06:23:01;15.70;72.50
37782;DHT22;23621;50.878;4.584;2022-09-28T06:25:28;15.60;72.70
37782;DHT22;23621;50.878;4.584;2022-09-28T06:28:03;15.60;72.80
37782;DHT22;23621;50.878;4.584;2022-09-28T06:30:32;15.60;72.80
37782;DHT22;23621;50.878;4.584;2022-09-28T06:33:00;15.50;73.00
37782;DHT22;23621;50.878;4.584;2022-09-28T06:35:29;15.50;73.20
37782;DHT22;23621;50.878;4.584;2022-09-28T06:37:57;15.50;73.40
37782;DHT22;23621;50.878;4.584;2022-09-28T06:40:25;15.50;73.50
37782;DHT22;23621;50.878;4.584;2022-09-28T06:42:58;15.50;73.50
37782;DHT22;23621;50.878;4.584;2022-09-28T06:45:26;15.50;73.80
37782;DHT22;23621;50.878;4.584;2022-09-28T06:47:55;15.50;74.00
37782;DHT22;23621;50.878;4.584;2022-09-28T06:50:27;15.40;74.10
37782;DHT22;23621;50.878;4.584;2022-09-28T06:52:56;15.40;74.30
37782;DHT22;23621;50.878;4.584;2022-09-28T06:55:23;15.40;74.50
37782;DHT22;23621;50.878;4.584;2022-09-28T07:00:26;15.60;74.40
37782;DHT22;23621;50.878;4.584;2022-09-28T07:02:53;15.60;74.30
37782;DHT22;23621;50.878;4.584;2022-09-28T07:05:19;15.60;74.30
37782;DHT22;23621;50.878;4.584;2022-09-28T07:07:55;15.70;74.50
37782;DHT22;23621;50.878;4.584;2022-09-28T07:10:27;15.70;74.40
37782;DHT22;23621;50.878;4.584;2022-09-28T07:12:55;15.80;74.40
37782;DHT22;23621;50.878;4.584;2022-09-28T07:15:23;15.80;74.40
37782;DHT22;23621;50.878;4.584;2022-09-28T07:17:55;15.90;74.40
37782;DHT22;23621;50.878;4.584;2022-09-28T07:20:33;16.00;74.40
37782;DHT22;23621;50.878;4.584;2022-09-28T07:23:12;16.10;74.30
37782;DHT22;23621;50.878;4.584;2022-09-28T07:25:45;16.20;74.30
37782;DHT22;23621;50.878;4.584;2022-09-28T07:28:15;16.20;74.40
37782;DHT22;23621;50.878;4.584;2022-09-28T07:30:46;16.10;74.30
37782;DHT22;23621;50.878;4.584;2022-09-28T07:33:15;16.10;74.30
37782;DHT22;23621;50.878;4.584;2022-09-28T07:35:50;16.10;74.60
37782;DHT22;23621;50.878;4.584;2022-09-28T07:38:18;16.20;74.60
37782;DHT22;23621;50.878;4.584;2022-09-28T07:40:45;16.20;74.50
37782;DHT22;23621;50.878;4.584;2022-09-28T07:43:31;16.20;74.90
37782;DHT22;23621;50.878;4.584;2022-09-28T07:45:58;16.20;74.80
37782;DHT22;23621;50.878;4.584;2022-09-28T07:48:25;16.20;74.80
37782;DHT22;23621;50.878;4.584;2022-09-28T07:50:55;16.20;74.90
37782;DHT22;23621;50.878;4.584;2022-09-28T07:53:24;16.30;74.90
37782;DHT22;23621;50.878;4.584;2022-09-28T07:55:51;16.40;74.80
37782;DHT22;23621;50.878;4.584;2022-09-28T07:58:18;16.40;74.80
37782;DHT22;23621;50.878;4.584;2022-09-28T08:00:47;16.50;74.80
37782;DHT22;23621;50.878;4.584;2022-09-28T08:03:16;16.50;74.80
37782;DHT22;23621;50.878;4.584;2022-09-28T08:05:43;16.50;75.00
37782;DHT22;23621;50.878;4.584;2022-09-28T08:08:13;16.50;74.90
37782;DHT22;23621;50.878;4.584;2022-09-28T08:10:44;16.60;75.00
37782;DHT22;23621;50.878;4.584;2022-09-28T08:13:13;16.60;75.10
37782;DHT22;23621;50.878;4.584;2022-09-28T08:15:41;16.60;75.00
37782;DHT22;23621;50.878;4.584;2022-09-28T08:18:08;16.60;75.20
37782;DHT22;23621;50.878;4.584;2022-09-28T08:20:35;16.60;75.30
37782;DHT22;23621;50.878;4.584;2022-09-28T08:23:21;16.60;75.30
37782;DHT22;23621;50.878;4.584;2022-09-28T08:25:50;16.60;75.30
37782;DHT22;23621;50.878;4.584;2022-09-28T08:28:21;16.60;75.60
37782;DHT22;23621;50.878;4.584;2022-09-28T08:30:48;16.60;75.60
37782;DHT22;23621;50.878;4.584;2022-09-28T08:33:17;16.70;75.50
37782;DHT22;23621;50.878;4.584;2022-09-28T08:35:45;16.70;75.50
37782;DHT22;23621;50.878;4.584;2022-09-28T08:38:13;16.70;75.40
37782;DHT22;23621;50.878;4.584;2022-09-28T08:40:54;16.80;75.30
37782;DHT22;23621;50.878;4.584;2022-09-28T08:46:38;16.90;74.90
37782;DHT22;23621;50.878;4.584;2022-09-28T08:49:33;17.00;75.10
37782;DHT22;23621;50.878;4.584;2022-09-28T08:52:04;17.00;75.10
37782;DHT22;23621;50.878;4.584;2022-09-28T08:55:10;17.00;75.20
37782;DHT22;23621;50.878;4.584;2022-09-28T08:57:54;17.00;75.30
37782;DHT22;23621;50.878;4.584;2022-09-28T09:00:46;17.00;75.20
37782;DHT22;23621;50.878;4.584;2022-09-28T09:03:18;17.00;74.90
37782;DHT22;23621;50.878;4.584;2022-09-28T09:06:21;17.00;75.00
37782;DHT22;23621;50.878;4.584;2022-09-28T09:11:55;17.10;75.30
37782;DHT22;23621;50.878;4.584;2022-09-28T09:14:30;17.00;75.00
37782;DHT22;23621;50.878;4.584;2022-09-28T09:17:21;17.10;74.80
37782;DHT22;23621;50.878;4.584;2022-09-28T09:19:53;17.20;74.80
37782;DHT22;23621;50.878;4.584;2022-09-28T09:22:42;17.20;74.90
37782;DHT22;23621;50.878;4.584;2022-09-28T09:25:34;17.30;74.90
37782;DHT22;23621;50.878;4.584;2022-09-28T09:33:47;17.30;74.60
37782;DHT22;23621;50.878;4.584;2022-09-28T09:44:59;17.50;74.80
37782;DHT22;23621;50.878;4.584;2022-09-28T09:47:54;17.60;74.30
37782;DHT22;23621;50.878;4.584;2022-09-28T09:50:58;17.70;74.20
37782;DHT22;23621;50.878;4.584;2022-09-28T09:53:43;17.90;74.20
37782;DHT22;23621;50.878;4.584;2022-09-28T09:56:24;18.00;74.30
37782;DHT22;23621;50.878;4.584;2022-09-28T09:58:56;18.10;73.70
37782;DHT22;23621;50.878;4.584;2022-09-28T10:01:37;18.20;73.80
37782;DHT22;23621;50.878;4.584;2022-09-28T10:04:29;18.30;73.30
37782;DHT22;23621;50.878;4.584;2022-09-28T10:07:02;18.30;72.50
37782;DHT22;23621;50.878;4.584;2022-09-28T10:09:36;18.40;72.80
37782;DHT22;23621;50.878;4.584;2022-09-28T10:12:08;18.30;71.60
37782;DHT22;23621;50.878;4.584;2022-09-28T10:14:37;18.20;72.10
37782;DHT22;23621;50.878;4.584;2022-09-28T10:17:04;18.30;71.80
37782;DHT22;23621;50.878;4.584;2022-09-28T10:19:33;18.20;71.70
37782;DHT22;23621;50.878;4.584;2022-09-28T10:22:03;18.40;72.00
37782;DHT22;23621;50.878;4.584;2022-09-28T10:24:43;18.30;71.60
37782;DHT22;23621;50.878;4.584;2022-09-28T10:27:14;18.30;71.50
37782;DHT22;23621;50.878;4.584;2022-09-28T10:30:02;18.30;71.40
37782;DHT22;23621;50.878;4.584;2022-09-28T10:32:42;18.40;71.30
37782;DHT22;23621;50.878;4.584;2022-09-28T10:38:06;18.50;72.00
37782;DHT22;23621;50.878;4.584;2022-09-28T10:43:20;18.90;72.20
37782;DHT22;23621;50.878;4.584;2022-09-28T10:46:04;19.10;71.90
37782;DHT22;23621;50.878;4.584;2022-09-28T10:51:43;19.30;71.50
37782;DHT22;23621;50.878;4.584;2022-09-28T10:54:19;19.40;70.40
37782;DHT22;23621;50.878;4.584;2022-09-28T10:56:46;19.30;69.50
37782;DHT22;23621;50.878;4.584;2022-09-28T11:02:39;19.40;69.00
37782;DHT22;23621;50.878;4.584;2022-09-28T11:04:53;19.40;69.80
37782;DHT22;23621;50.878;4.584;2022-09-28T11:07:31;19.50;69.70
37782;DHT22;23621;50.878;4.584;2022-09-28T11:09:59;19.50;69.10
37782;DHT22;23621;50.878;4.584;2022-09-28T11:12:35;19.50;69.00
37782;DHT22;23621;50.878;4.584;2022-09-28T11:15:05;19.40;68.70
37782;DHT22;23621;50.878;4.584;2022-09-28T11:17:35;19.40;68.80
37782;DHT22;23621;50.878;4.584;2022-09-28T11:23:18;19.30;68.90
37782;DHT22;23621;50.878;4.584;2022-09-28T11:25:57;19.30;69.30
37782;DHT22;23621;50.878;4.584;2022-09-28T11:28:33;19.30;69.60
37782;DHT22;23621;50.878;4.584;2022-09-28T11:31:02;19.20;69.50
37782;DHT22;23621;50.878;4.584;2022-09-28T11:50:20;19.70;70.90
37782;DHT22;23621;50.878;4.584;2022-09-28T11:52:54;19.70;71.10
37782;DHT22;23621;50.878;4.584;2022-09-28T11:55:39;19.70;70.90
37782;DHT22;23621;50.878;4.584;2022-09-28T12:04:30;19.80;68.50
37782;DHT22;23621;50.878;4.584;2022-09-28T12:07:05;19.80;69.00
37782;DHT22;23621;50.878;4.584;2022-09-28T12:10:15;19.80;69.00
37782;DHT22;23621;50.878;4.584;2022-09-28T12:15:34;19.80;67.70
37782;DHT22;23621;50.878;4.584;2022-09-28T12:23:57;20.00;67.80
37782;DHT22;23621;50.878;4.584;2022-09-28T12:26:39;20.00;67.70
37782;DHT22;23621;50.878;4.584;2022-09-28T12:29:14;20.10;67.80
37782;DHT22;23621;50.878;4.584;2022-09-28T12:31:59;20.20;67.60
37782;DHT22;23621;50.878;4.584;2022-09-28T12:34:27;20.10;65.80
37782;DHT22;23621;50.878;4.584;2022-09-28T12:37:17;20.10;66.50
37782;DHT22;23621;50.878;4.584;2022-09-28T12:42:43;20.00;67.50
37782;DHT22;23621;50.878;4.584;2022-09-28T12:51:55;19.60;66.40
37782;DHT22;23621;50.878;4.584;2022-09-28T13:00:10;19.60;67.10
37782;DHT22;23621;50.878;4.584;2022-09-28T13:11:35;19.70;67.60
37782;DHT22;23621;50.878;4.584;2022-09-28T13:14:09;19.80;67.00
37782;DHT22;23621;50.878;4.584;2022-09-28T13:19:55;19.80;67.40
37782;DHT22;23621;50.878;4.584;2022-09-28T13:25:16;19.70;66.90
37782;DHT22;23621;50.878;4.584;2022-09-28T13:27:52;19.70;67.20
37782;DHT22;23621;50.878;4.584;2022-09-28T13:30:21;19.70;66.80
37782;DHT22;23621;50.878;4.584;2022-09-28T13:32:48;19.80;67.00
37782;DHT22;23621;50.878;4.584;2022-09-28T13:35:17;19.80;66.60
37782;DHT22;23621;50.878;4.584;2022-09-28T13:37:47;19.90;66.00
37782;DHT22;23621;50.878;4.584;2022-09-28T13:40:14;20.00;65.80
37782;DHT22;23621;50.878;4.584;2022-09-28T13:42:51;19.90;65.40
37782;DHT22;23621;50.878;4.584;2022-09-28T13:45:30;20.00;65.30
37782;DHT22;23621;50.878;4.584;2022-09-28T13:49:20;20.00;65.20
37782;DHT22;23621;50.878;4.584;2022-09-28T13:51:38;20.00;64.90
37782;DHT22;23621;50.878;4.584;2022-09-28T13:54:22;20.00;65.40
37782;DHT22;23621;50.878;4.584;2022-09-28T13:57:08;20.10;65.80
37782;DHT22;23621;50.878;4.584;2022-09-28T14:00:12;20.20;65.40
37782;DHT22;23621;50.878;4.584;2022-09-28T14:02:43;20.20;64.90
37782;DHT22;23621;50.878;4.584;2022-09-28T14:10:52;20.50;64.50
37782;DHT22;23621;50.878;4.584;2022-09-28T14:16:34;20.60;64.30
37782;DHT22;23621;50.878;4.584;2022-09-28T14:19:02;20.60;64.00
37782;DHT22;23621;50.878;4.584;2022-09-28T14:30:34;20.50;65.80
37782;DHT22;23621;50.878;4.584;2022-09-28T14:35:53;20.50;67.20
37782;DHT22;23621;50.878;4.584;2022-09-28T14:38:28;20.50;66.60
37782;DHT22;23621;50.878;4.584;2022-09-28T14:41:39;20.50;66.80
37782;DHT22;23621;50.878;4.584;2022-09-28T14:46:37;20.50;66.90
37782;DHT22;23621;50.878;4.584;2022-09-28T14:54:28;20.60;67.10
37782;DHT22;23621;50.878;4.584;2022-09-28T14:57:04;20.70;67.00
37782;DHT22;23621;50.878;4.584;2022-09-28T14:59:42;20.70;67.00
37782;DHT22;23621;50.878;4.584;2022-09-28T15:04:40;20.80;66.90
37782;DHT22;23621;50.878;4.584;2022-09-28T15:07:29;20.80;66.80
37782;DHT22;23621;50.878;4.584;2022-09-28T15:10:00;20.80;66.40
37782;DHT22;23621;50.878;4.584;2022-09-28T15:12:31;20.80;66.40
37782;DHT22;23621;50.878;4.584;2022-09-28T15:15:00;20.70;66.30
37782;DHT22;23621;50.878;4.584;2022-09-28T15:17:30;20.70;66.30
37782;DHT22;23621;50.878;4.584;2022-09-28T15:20:58;20.70;66.50
37782;DHT22;23621;50.878;4.584;2022-09-28T15:23:27;20.60;67.10
37782;DHT22;23621;50.878;4.584;2022-09-28T15:25:58;20.60;67.10
37782;DHT22;23621;50.878;4.584;2022-09-28T15:28:26;20.60;67.20
37782;DHT22;23621;50.878;4.584;2022-09-28T15:31:00;20.60;67.40
37782;DHT22;23621;50.878;4.584;2022-09-28T15:33:30;20.60;67.60
37782;DHT22;23621;50.878;4.584;2022-09-28T15:36:25;20.60;67.90
37782;DHT22;23621;50.878;4.584;2022-09-28T15:39:00;20.50;68.10
37782;DHT22;23621;50.878;4.584;2022-09-28T15:41:28;20.60;68.50
37782;DHT22;23621;50.878;4.584;2022-09-28T15:46:33;20.60;68.60
37782;DHT22;23621;50.878;4.584;2022-09-28T15:49:02;20.50;68.50
37782;DHT22;23621;50.878;4.584;2022-09-28T15:51:31;20.50;68.50
37782;DHT22;23621;50.878;4.584;2022-09-28T15:54:26;20.50;68.10
37782;DHT22;23621;50.878;4.584;2022-09-28T15:56:59;20.50;68.60
37782;DHT22;23621;50.878;4.584;2022-09-28T15:59:35;20.50;68.90
37782;DHT22;23621;50.878;4.584;2022-09-28T16:02:16;20.50;69.20
37782;DHT22;23621;50.878;4.584;2022-09-28T16:04:50;20.50;69.30
37782;DHT22;23621;50.878;4.584;2022-09-28T16:07:32;20.50;69.30
37782;DHT22;23621;50.878;4.584;2022-09-28T16:12:40;20.50;69.30
37782;DHT22;23621;50.878;4.584;2022-09-28T16:17:53;20.50;69.30
37782;DHT22;23621;50.878;4.584;2022-09-28T16:22:49;20.50;69.00
37782;DHT22;23621;50.878;4.584;2022-09-28T16:25:22;20.50;69.30
37782;DHT22;23621;50.878;4.584;2022-09-28T16:27:51;20.50;69.70
37782;DHT22;23621;50.878;4.584;2022-09-28T16:30:28;20.40;69.80
37782;DHT22;23621;50.878;4.584;2022-09-28T16:33:00;20.40;69.90
37782;DHT22;23621;50.878;4.584;2022-09-28T16:35:29;20.30;69.80
37782;DHT22;23621;50.878;4.584;2022-09-28T16:40:24;20.10;68.00
37782;DHT22;23621;50.878;4.584;2022-09-28T16:42:55;20.10;67.40
37782;DHT22;23621;50.878;4.584;2022-09-28T16:45:23;20.10;66.90
37782;DHT22;23621;50.878;4.584;2022-09-28T16:47:50;20.00;66.70
37782;DHT22;23621;50.878;4.584;2022-09-28T16:50:21;19.90;66.80
37782;DHT22;23621;50.878;4.584;2022-09-28T16:53:00;19.90;66.50
37782;DHT22;23621;50.878;4.584;2022-09-28T16:55:48;19.80;66.10
37782;DHT22;23621;50.878;4.584;2022-09-28T16:58:15;19.80;66.20
37782;DHT22;23621;50.878;4.584;2022-09-28T17:00:42;19.70;66.70
37782;DHT22;23621;50.878;4.584;2022-09-28T17:03:15;19.70;67.00
37782;DHT22;23621;50.878;4.584;2022-09-28T17:05:44;19.70;67.10
37782;DHT22;23621;50.878;4.584;2022-09-28T17:08:14;19.60;66.90
37782;DHT22;23621;50.878;4.584;2022-09-28T17:10:54;19.60;67.10
37782;DHT22;23621;50.878;4.584;2022-09-28T17:13:41;19.60;67.30
37782;DHT22;23621;50.878;4.584;2022-09-28T17:16:17;19.50;68.30
37782;DHT22;23621;50.878;4.584;2022-09-28T17:19:20;19.40;67.80
37782;DHT22;23621;50.878;4.584;2022-09-28T17:21:49;19.30;68.20
37782;DHT22;23621;50.878;4.584;2022-09-28T17:24:17;19.20;68.20
37782;DHT22;23621;50.878;4.584;2022-09-28T17:26:46;19.10;68.50
37782;DHT22;23621;50.878;4.584;2022-09-28T17:29:14;19.10;68.90
37782;DHT22;23621;50.878;4.584;2022-09-28T17:31:42;19.00;69.00
37782;DHT22;23621;50.878;4.584;2022-09-28T17:34:11;19.00;69.10
37782;DHT22;23621;50.878;4.584;2022-09-28T17:36:40;18.90;69.10
37782;DHT22;23621;50.878;4.584;2022-09-28T17:39:14;18.80;69.20
37782;DHT22;23621;50.878;4.584;2022-09-28T17:41:42;18.80;69.40
37782;DHT22;23621;50.878;4.584;2022-09-28T17:44:09;18.70;69.40
37782;DHT22;23621;50.878;4.584;2022-09-28T17:46:37;18.60;69.40
37782;DHT22;23621;50.878;4.584;2022-09-28T17:49:09;18.60;69.60
37782;DHT22;23621;50.878;4.584;2022-09-28T17:51:37;18.50;69.50
37782;DHT22;23621;50.878;4.584;2022-09-28T17:54:05;18.50;69.60
37782;DHT22;23621;50.878;4.584;2022-09-28T17:56:34;18.40;69.60
37782;DHT22;23621;50.878;4.584;2022-09-28T17:59:06;18.40;69.70
37782;DHT22;23621;50.878;4.584;2022-09-28T18:01:37;18.40;69.70
37782;DHT22;23621;50.878;4.584;2022-09-28T18:04:06;18.30;69.70
37782;DHT22;23621;50.878;4.584;2022-09-28T18:06:35;18.30;69.80
37782;DHT22;23621;50.878;4.584;2022-09-28T18:09:04;18.20;69.60
37782;DHT22;23621;50.878;4.584;2022-09-28T18:11:32;18.20;69.80
37782;DHT22;23621;50.878;4.584;2022-09-28T18:13:59;18.10;69.70
37782;DHT22;23621;50.878;4.584;2022-09-28T18:16:27;18.10;69.80
37782;DHT22;23621;50.878;4.584;2022-09-28T18:18:54;18.10;69.80
37782;DHT22;23621;50.878;4.584;2022-09-28T18:21:21;18.10;69.80
37782;DHT22;23621;50.878;4.584;2022-09-28T18:23:48;18.00;69.70
37782;DHT22;23621;50.878;4.584;2022-09-28T18:26:15;18.00;69.80
37782;DHT22;23621;50.878;4.584;2022-09-28T18:28:44;18.00;69.80
37782;DHT22;23621;50.878;4.584;2022-09-28T18:31:13;18.00;69.80
37782;DHT22;23621;50.878;4.584;2022-09-28T18:33:40;18.00;69.60
37782;DHT22;23621;50.878;4.584;2022-09-28T18:36:07;18.00;69.60
37782;DHT22;23621;50.878;4.584;2022-09-28T18:38:35;18.00;69.40
37782;DHT22;23621;50.878;4.584;2022-09-28T18:41:09;17.90;69.20
37782;DHT22;23621;50.878;4.584;2022-09-28T18:43:36;17.90;69.20
37782;DHT22;23621;50.878;4.584;2022-09-28T18:46:07;17.90;69.00
37782;DHT22;23621;50.878;4.584;2022-09-28T18:48:36;17.80;68.90
37782;DHT22;23621;50.878;4.584;2022-09-28T18:51:07;17.80;69.00
37782;DHT22;23621;50.878;4.584;2022-09-28T18:53:34;17.70;68.90
37782;DHT22;23621;50.878;4.584;2022-09-28T18:56:09;17.70;68.90
37782;DHT22;23621;50.878;4.584;2022-09-28T18:58:38;17.70;68.80
37782;DHT22;23621;50.878;4.584;2022-09-28T19:01:10;17.60;68.80
37782;DHT22;23621;50.878;4.584;2022-09-28T19:04:01;17.60;68.80
37782;DHT22;23621;50.878;4.584;2022-09-28T19:06:31;17.60;68.80
37782;DHT22;23621;50.878;4.584;2022-09-28T19:09:00;17.50;68.70